Amarone — SBGA — position and weather

sailwx.info

Track history (hours):
 
Tides and Currents Weather Stations Pressure Air Temp Water Temp Dewpoint Dewpoint Depression Visibility Wind Speed Wind Dir Waves Ship Positions

Amarone

Last reported at 2017-Sep-29 14:20 UTC. Time now 2017-Oct-18 06:09 UTC.
Position N 28°08' W 015°26'.
Warning: this ship's position is 18 days out of date.

Length 14 m.

Type: Pleasure craft. MMSI: 265595750.

Date/timePositionNaut miles runAvg speedWind from/ knotsBaromVisibWave heightAir tempDewpointWater temp
2017-Sep-29 14:20N 28°08' W 015°26'0 0.0
2017-Sep-29 13:56N 28°08' W 015°26'0 0.0
2017-Sep-29 13:26N 28°08' W 015°26'0 0.0
2017-Sep-29 12:56N 28°08' W 015°26'0 0.0
2017-Sep-29 12:26N 28°08' W 015°26'0 0.0
2017-Sep-29 11:59N 28°08' W 015°26'0 0.0
2017-Sep-29 11:29N 28°08' W 015°26'0 0.0
2017-Sep-29 10:59N 28°08' W 015°26'0 0.0
2017-Sep-29 10:26N 28°08' W 015°26'0 0.2
2017-Sep-29 09:53N 28°08' W 015°26'0 0.1
2017-Sep-29 09:28N 28°08' W 015°25'0 0.0
2017-Sep-29 08:58N 28°08' W 015°25'0 0.0
2017-Sep-29 08:28N 28°08' W 015°25'1 2.8
2017-Sep-29 08:00N 28°08' W 015°24'3 6.4
2017-Sep-29 07:30N 28°11' W 015°23'3 6.5
2017-Sep-29 07:00N 28°14' W 015°21'3 6.5
2017-Sep-29 06:30N 28°16' W 015°19'3 6.4
2017-Sep-29 06:00N 28°19' W 015°18'3 6.6
2017-Sep-29 05:29N 28°22' W 015°16'3 6.8
2017-Sep-29 04:59N 28°25' W 015°14'4 7.0
2017-Sep-29 04:28N 28°29' W 015°12'11 7.0
2017-Sep-29 02:57N 28°38' W 015°07'3 6.7
2017-Sep-29 02:27N 28°41' W 015°05'3 6.5
2017-Sep-29 01:56N 28°44' W 015°03'5 6.4
2017-Sep-29 01:14N 28°48' W 015°00'3 6.3
2017-Sep-29 00:45N 28°50' W 014°59'2 6.4
2017-Sep-29 00:22N 28°52' W 014°57'4 6.5
2017-Sep-28 23:43N 28°56' W 014°55'2 6.5
2017-Sep-28 23:21N 28°58' W 014°53'5 6.6
2017-Sep-28 22:34N 29°02' W 014°50'2 6.7
2017-Sep-28 22:15N 29°04' W 014°48'2 6.7
2017-Sep-28 22:00N 29°05' W 014°47'5 6.6
2017-Sep-28 21:14N 29°09' W 014°44'3 6.5
2017-Sep-28 20:42N 29°12' W 014°41'1 6.7
2017-Sep-28 20:30N 29°13' W 014°40'3 6.8
2017-Sep-28 20:00N 29°16' W 014°38'3 6.7
2017-Sep-28 19:30N 29°18' W 014°36'5 6.9
2017-Sep-28 18:48N 29°22' W 014°33'3 7.1
2017-Sep-28 18:21N 29°25' W 014°31'3 7.1
2017-Sep-28 17:51N 29°28' W 014°29'2 7.1
2017-Sep-28 17:30N 29°30' W 014°27'47 6.3
2017-Sep-28 10:00N 30°07' W 013°53'50 6.2
2017-Sep-28 01:54N 30°46' W 013°15'  
2017-Sep-25 17:09N 36°35' W 011°15'119 5.9
2017-Sep-24 21:06N 38°09' W 009°44'1 5.8
2017-Sep-24 21:00N 38°09' W 009°43'3 5.5
2017-Sep-24 20:30N 38°12' W 009°42'2 4.9
2017-Sep-24 20:00N 38°14' W 009°41'2 4.5
2017-Sep-24 19:30N 38°16' W 009°39'2 4.9
2017-Sep-24 19:00N 38°18' W 009°38'3 5.8
2017-Sep-24 18:30N 38°21' W 009°36'3 5.5
2017-Sep-24 18:00N 38°23' W 009°35'3 6.1
2017-Sep-24 17:30N 38°26' W 009°33'3 5.5
2017-Sep-24 17:00N 38°29' W 009°32'3 6.1
2017-Sep-24 16:30N 38°31' W 009°30'3 5.2
2017-Sep-24 16:00N 38°34' W 009°29'3 5.8
2017-Sep-24 15:30N 38°37' W 009°28'3 5.2
2017-Sep-24 15:00N 38°39' W 009°26'2 4.6
2017-Sep-24 14:30N 38°41' W 009°25'1 1.2
2017-Sep-24 13:58N 38°42' W 009°25'0 0.1
2017-Sep-24 13:30N 38°42' W 009°25'0 0.5
2017-Sep-24 12:59N 38°41' W 009°25'0 0.0
2017-Sep-24 12:29N 38°41' W 009°25'0 0.0
2017-Sep-24 11:59N 38°41' W 009°25'0 0.0
2017-Sep-24 11:28N 38°41' W 009°25'0 0.0
2017-Sep-24 10:58N 38°41' W 009°25'0 0.0
2017-Sep-24 10:28N 38°41' W 009°25'0 0.0
2017-Sep-24 09:58N 38°41' W 009°25'0 0.0
2017-Sep-24 09:28N 38°41' W 009°25'0 0.0
2017-Sep-24 08:58N 38°41' W 009°25'0 0.0
2017-Sep-24 08:28N 38°41' W 009°25'0 0.0
2017-Sep-24 07:58N 38°41' W 009°25'0 0.0
2017-Sep-24 07:28N 38°41' W 009°25'0 0.0
2017-Sep-24 06:58N 38°41' W 009°25'  
Track history (hours):
 
Tides and Currents Weather Stations Pressure Air Temp Water Temp Dewpoint Dewpoint Depression Visibility Wind Speed Wind Dir Waves Ship Positions

Amarone

Last reported at 2017-Sep-29 14:20 UTC. Time now 2017-Oct-18 06:09 UTC.
Position N 28°08' W 015°26'.
Warning: this ship's position is 18 days out of date.

Length 14 m.

Type: Pleasure craft. MMSI: 265595750.

Date/timePositionNaut miles runAvg speedWind from/ knotsBaromVisibWave heightAir tempDewpointWater temp
2017-Sep-29 14:20N 28°08' W 015°26'0 0.0
2017-Sep-29 13:56N 28°08' W 015°26'0 0.0
2017-Sep-29 13:26N 28°08' W 015°26'0 0.0
2017-Sep-29 12:56N 28°08' W 015°26'0 0.0
2017-Sep-29 12:26N 28°08' W 015°26'0 0.0
2017-Sep-29 11:59N 28°08' W 015°26'0 0.0
2017-Sep-29 11:29N 28°08' W 015°26'0 0.0
2017-Sep-29 10:59N 28°08' W 015°26'0 0.0
2017-Sep-29 10:26N 28°08' W 015°26'0 0.2
2017-Sep-29 09:53N 28°08' W 015°26'0 0.1
2017-Sep-29 09:28N 28°08' W 015°25'0 0.0
2017-Sep-29 08:58N 28°08' W 015°25'0 0.0
2017-Sep-29 08:28N 28°08' W 015°25'1 2.8
2017-Sep-29 08:00N 28°08' W 015°24'3 6.4
2017-Sep-29 07:30N 28°11' W 015°23'3 6.5
2017-Sep-29 07:00N 28°14' W 015°21'3 6.5
2017-Sep-29 06:30N 28°16' W 015°19'3 6.4
2017-Sep-29 06:00N 28°19' W 015°18'3 6.6
2017-Sep-29 05:29N 28°22' W 015°16'3 6.8
2017-Sep-29 04:59N 28°25' W 015°14'4 7.0
2017-Sep-29 04:28N 28°29' W 015°12'11 7.0
2017-Sep-29 02:57N 28°38' W 015°07'3 6.7
2017-Sep-29 02:27N 28°41' W 015°05'3 6.5
2017-Sep-29 01:56N 28°44' W 015°03'5 6.4
2017-Sep-29 01:14N 28°48' W 015°00'3 6.3
2017-Sep-29 00:45N 28°50' W 014°59'2 6.4
2017-Sep-29 00:22N 28°52' W 014°57'4 6.5
2017-Sep-28 23:43N 28°56' W 014°55'2 6.5
2017-Sep-28 23:21N 28°58' W 014°53'5 6.6
2017-Sep-28 22:34N 29°02' W 014°50'2 6.7
2017-Sep-28 22:15N 29°04' W 014°48'2 6.7
2017-Sep-28 22:00N 29°05' W 014°47'5 6.6
2017-Sep-28 21:14N 29°09' W 014°44'3 6.5
2017-Sep-28 20:42N 29°12' W 014°41'1 6.7
2017-Sep-28 20:30N 29°13' W 014°40'3 6.8
2017-Sep-28 20:00N 29°16' W 014°38'3 6.7
2017-Sep-28 19:30N 29°18' W 014°36'5 6.9
2017-Sep-28 18:48N 29°22' W 014°33'3 7.1
2017-Sep-28 18:21N 29°25' W 014°31'3 7.1
2017-Sep-28 17:51N 29°28' W 014°29'2 7.1
2017-Sep-28 17:30N 29°30' W 014°27'47 6.3
2017-Sep-28 10:00N 30°07' W 013°53'50 6.2
2017-Sep-28 01:54N 30°46' W 013°15'  
2017-Sep-25 17:09N 36°35' W 011°15'119 5.9
2017-Sep-24 21:06N 38°09' W 009°44'1 5.8
2017-Sep-24 21:00N 38°09' W 009°43'3 5.5
2017-Sep-24 20:30N 38°12' W 009°42'2 4.9
2017-Sep-24 20:00N 38°14' W 009°41'2 4.5
2017-Sep-24 19:30N 38°16' W 009°39'2 4.9
2017-Sep-24 19:00N 38°18' W 009°38'3 5.8
2017-Sep-24 18:30N 38°21' W 009°36'3 5.5
2017-Sep-24 18:00N 38°23' W 009°35'3 6.1
2017-Sep-24 17:30N 38°26' W 009°33'3 5.5
2017-Sep-24 17:00N 38°29' W 009°32'3 6.1
2017-Sep-24 16:30N 38°31' W 009°30'3 5.2
2017-Sep-24 16:00N 38°34' W 009°29'3 5.8
2017-Sep-24 15:30N 38°37' W 009°28'3 5.2
2017-Sep-24 15:00N 38°39' W 009°26'2 4.6
2017-Sep-24 14:30N 38°41' W 009°25'1 1.2
2017-Sep-24 13:58N 38°42' W 009°25'0 0.1
2017-Sep-24 13:30N 38°42' W 009°25'0 0.5
2017-Sep-24 12:59N 38°41' W 009°25'0 0.0
2017-Sep-24 12:29N 38°41' W 009°25'0 0.0
2017-Sep-24 11:59N 38°41' W 009°25'0 0.0
2017-Sep-24 11:28N 38°41' W 009°25'0 0.0
2017-Sep-24 10:58N 38°41' W 009°25'0 0.0
2017-Sep-24 10:28N 38°41' W 009°25'0 0.0
2017-Sep-24 09:58N 38°41' W 009°25'0 0.0
2017-Sep-24 09:28N 38°41' W 009°25'0 0.0
2017-Sep-24 08:58N 38°41' W 009°25'0 0.0
2017-Sep-24 08:28N 38°41' W 009°25'0 0.0
2017-Sep-24 07:58N 38°41' W 009°25'0 0.0
2017-Sep-24 07:28N 38°41' W 009°25'0 0.0
2017-Sep-24 06:58N 38°41' W 009°25'  

Dump ship's entire track history